La Grange Park, Illinois
Current Conditions -  °F | °C
As of 9:53 PM on Friday 28 Nov 2014 (Local Time) from KMDW Reporting Station
Broken Clouds Broken Clouds  
Wind Chill: 28°   Ceiling: 14000
Heat Index: 36°   Visibility: 10mi
Dew Point: 28°   Wind: 10mph
Humidity: 73%   Direction: 170°S
Pressure: 29.93"   Gusts: NA
Location:  41.82°N, 87.87°W
Report Text: KMDW 290353Z 17009KT 10SM FEW110 BKN140 02/M02 A2993 RMK AO2 SLP146 T00221022 $
Loading
Personal Weather Stations






























Interactive Weather Map New forecast layout! Learn more

10-Day Weather Forecast

Advertisements
Track Severe Weather on mobile